| Date | Time | Temp. (oF) | Dew Point (oF) | Rel. Hum. (%) | Press. (in.) | Wind Dir. | Wind Speed (mph) | Hourly Rainfall (in.) |
|
|---|---|---|---|---|---|---|---|---|---|
| 1 | 04/13 | 00:00 | 43 | 23 | 45 | 30.25 | NNE | 9 | 0.00 |
| 2 | 04/12 | 23:00 | 45 | 23 | 42 | 30.23 | NE | 5 | 0.00 |
| 3 | 04/12 | 22:00 | 46 | 22 | 40 | 30.21 | NE | 0 | 0.00 |
| 4 | 04/12 | 21:00 | 48 | 23 | 38 | 30.19 | ENE | 0 | 0.00 |
| 5 | 04/12 | 20:00 | 51 | 22 | 33 | 30.15 | NNE | 0 | 0.00 |
| 6 | 04/12 | 19:00 | 53 | 22 | 30 | 30.12 | WNW | 8 | 0.00 |
| 7 | 04/12 | 18:00 | 55 | 22 | 28 | 30.09 | N | 16 | 0.00 |
| 8 | 04/12 | 17:00 | 57 | 23 | 28 | 30.06 | W | 12 | 0.00 |
| 9 | 04/12 | 16:00 | 58 | 25 | 29 | 30.04 | W | 6 | 0.00 |
| 10 | 04/12 | 15:00 | 58 | 28 | 32 | 30.03 | W | 8 | 0.00 |
| 11 | 04/12 | 14:00 | 57 | 30 | 36 | 30.03 | N | 9 | 0.00 |
| 12 | 04/12 | 13:00 | 56 | 31 | 39 | 30.02 | W | 10 | 0.00 |
| 13 | 04/12 | 12:00 | 54 | 31 | 43 | 30.02 | W | 15 | 0.00 |
| 14 | 04/12 | 11:00 | 52 | 39 | 62 | 30.01 | W | 10 | 0.00 |
| 15 | 04/12 | 10:00 | 50 | 45 | 83 | 29.99 | W | 9 | 0.01 |
| 16 | 04/12 | 09:00 | 52 | 47 | 86 | 29.95 | N | 13 | 0.04 |
| 17 | 04/12 | 08:00 | 55 | 51 | 88 | 29.92 | W | 8 | 0.02 |
| 18 | 04/12 | 07:00 | 55 | 50 | 85 | 29.88 | SW | 0 | 0.07 |
| 19 | 04/12 | 06:00 | 56 | 49 | 80 | 29.85 | S | 0 | 0.01 |
| 20 | 04/12 | 05:00 | 56 | 49 | 78 | 29.82 | S | 4 | 0.01 |
| 21 | 04/12 | 04:00 | 59 | 49 | 72 | 29.81 | SSE | 1 | 0.00 |
| 22 | 04/12 | 03:00 | 59 | 48 | 67 | 29.81 | S | 6 | 0.00 |
| 23 | 04/12 | 02:00 | 60 | 47 | 63 | 29.81 | SSW | 7 | 0.00 |
| 24 | 04/12 | 01:00 | 61 | 46 | 60 | 29.81 | S | 9 | 0.00 |